createdAt,value
2022-11-26T00:00:51.561Z,97.13
2022-11-26T00:03:29.598Z,94.93
2022-11-26T00:05:57.013Z,92.38
2022-11-26T00:08:30.233Z,96.13
2022-11-26T00:10:57.443Z,91.40
2022-11-26T00:13:26.349Z,94.18
2022-11-26T00:15:53.469Z,97.95
2022-11-26T00:18:20.295Z,86.70
2022-11-26T00:20:47.365Z,89.80
2022-11-26T00:23:21.761Z,88.80
2022-11-26T00:25:50.918Z,89.40
2022-11-26T00:28:34.826Z,90.00
2022-11-26T00:31:04.675Z,85.35
2022-11-26T00:33:31.800Z,84.78
2022-11-26T00:36:22.766Z,81.43
2022-11-26T00:38:53.652Z,80.07
2022-11-26T00:41:23.478Z,77.80
2022-11-26T00:43:50.250Z,78.85
2022-11-26T00:46:19.441Z,79.55
2022-11-26T00:48:46.343Z,73.82
2022-11-26T00:51:22.137Z,77.57
2022-11-26T00:53:48.942Z,79.38
2022-11-26T00:56:18.236Z,75.55
2022-11-26T00:58:45.379Z,70.28
2022-11-26T01:01:14.324Z,71.18
2022-11-26T01:03:43.018Z,74.40
2022-11-26T01:06:31.428Z,73.63
2022-11-26T01:08:58.250Z,74.50
2022-11-26T01:11:25.378Z,68.65
2022-11-26T01:13:53.329Z,70.13
2022-11-26T01:16:20.347Z,73.65
2022-11-26T01:18:47.990Z,73.32
2022-11-26T01:21:15.294Z,76.60
2022-11-26T01:23:42.094Z,67.15
2022-11-26T01:26:42.189Z,66.07
2022-11-26T01:29:18.886Z,68.63
2022-11-26T01:31:46.073Z,69.05
2022-11-26T01:34:12.996Z,65.22
2022-11-26T01:36:40.880Z,70.40
2022-11-26T01:39:13.275Z,62.65
2022-11-26T01:41:52.765Z,65.60
2022-11-26T01:44:24.845Z,62.80
2022-11-26T01:46:52.883Z,67.03
2022-11-26T01:49:26.900Z,62.88
2022-11-26T01:52:22.067Z,65.10
2022-11-26T01:54:48.792Z,60.67
2022-11-26T01:57:18.182Z,66.20
2022-11-26T01:59:46.959Z,57.17
2022-11-26T02:02:14.117Z,65.53
2022-11-26T02:04:45.820Z,63.33
2022-11-26T02:07:12.913Z,57.30
2022-11-26T02:09:39.709Z,58.38
2022-11-26T02:12:06.806Z,56.20
2022-11-26T02:14:38.687Z,63.53
2022-11-26T02:17:06.012Z,57.88
2022-11-26T02:20:10.374Z,54.42
2022-11-26T02:22:40.385Z,58.05
2022-11-26T02:25:35.332Z,59.33
2022-11-26T02:28:23.804Z,55.97
2022-11-26T02:31:05.759Z,55.08
2022-11-26T02:33:59.012Z,58.15
2022-11-26T02:36:33.809Z,52.53
2022-11-26T02:39:14.247Z,53.30
2022-11-26T02:41:45.608Z,52.70
2022-11-26T02:44:14.144Z,53.42
2022-11-26T02:46:40.848Z,51.55
2022-11-26T02:49:08.124Z,56.05
2022-11-26T02:51:35.124Z,51.15
2022-11-26T02:54:02.221Z,51.33
2022-11-26T02:56:28.991Z,52.10
2022-11-26T02:58:56.223Z,53.10
2022-11-26T03:01:35.511Z,50.13
2022-11-26T03:04:05.984Z,51.08
2022-11-26T03:06:33.065Z,50.40
2022-11-26T03:09:00.159Z,51.83
2022-11-26T03:11:27.496Z,47.08
2022-11-26T03:13:54.476Z,50.45
2022-11-26T03:16:21.315Z,46.83
2022-11-26T03:18:48.392Z,49.08
2022-11-26T03:21:15.099Z,49.63
2022-11-26T03:23:42.145Z,48.60
2022-11-26T03:26:08.836Z,50.78
2022-11-26T03:28:36.028Z,45.25
2022-11-26T03:31:02.739Z,49.60
2022-11-26T03:33:29.767Z,48.03
2022-11-26T03:35:56.483Z,46.10
2022-11-26T03:38:23.540Z,45.78
2022-11-26T03:40:57.592Z,50.22
2022-11-26T03:43:24.727Z,45.77
2022-11-26T03:45:51.515Z,43.90
2022-11-26T03:48:18.632Z,43.42
2022-11-26T03:50:45.364Z,48.22
2022-11-26T03:53:12.404Z,44.60
2022-11-26T03:55:39.152Z,44.03
2022-11-26T03:58:06.312Z,45.70
2022-11-26T04:00:33.072Z,44.55
2022-11-26T04:03:00.182Z,45.25
2022-11-26T04:05:26.985Z,45.15
2022-11-26T04:07:54.063Z,42.50
2022-11-26T04:10:20.859Z,43.92
2022-11-26T04:12:47.855Z,47.03
2022-11-26T04:15:14.539Z,45.25
2022-11-26T04:17:41.567Z,45.42
2022-11-26T04:20:09.031Z,46.30
2022-11-26T04:22:36.092Z,47.55
2022-11-26T04:25:02.911Z,42.75
2022-11-26T04:27:30.000Z,48.50
2022-11-26T04:29:56.724Z,46.70
2022-11-26T04:32:23.775Z,49.55
2022-11-26T04:34:50.472Z,46.85
2022-11-26T04:37:17.514Z,46.08
2022-11-26T04:39:44.242Z,44.92
2022-11-26T04:42:11.277Z,44.47
2022-11-26T04:44:38.361Z,39.78
2022-11-26T04:47:05.638Z,42.10
2022-11-26T04:49:32.380Z,41.80
2022-11-26T04:51:59.408Z,43.15
2022-11-26T04:54:26.124Z,44.78
2022-11-26T04:56:53.170Z,40.58
2022-11-26T04:59:19.884Z,40.08
2022-11-26T05:01:47.387Z,37.72
2022-11-26T05:04:14.143Z,39.90
2022-11-26T05:06:41.171Z,41.65
2022-11-26T05:09:07.918Z,40.17
2022-11-26T05:11:34.959Z,42.30
2022-11-26T05:14:01.719Z,41.65
2022-11-26T05:16:28.825Z,41.95
2022-11-26T05:18:55.631Z,41.15
2022-11-26T05:21:22.727Z,42.97
2022-11-26T05:23:49.404Z,39.08
2022-11-26T05:26:17.031Z,38.28
2022-11-26T05:28:43.767Z,43.70
2022-11-26T05:31:11.035Z,42.17
2022-11-26T05:33:37.908Z,37.35
2022-11-26T05:36:05.237Z,43.22
2022-11-26T05:38:31.979Z,43.65
2022-11-26T05:40:59.000Z,40.70
2022-11-26T05:43:25.779Z,37.67
2022-11-26T05:45:52.858Z,39.05
2022-11-26T05:48:19.567Z,35.17
2022-11-26T05:50:50.279Z,40.70
2022-11-26T05:53:21.051Z,40.33
2022-11-26T05:55:48.083Z,42.60
2022-11-26T05:58:14.812Z,38.13
2022-11-26T06:00:41.800Z,41.08
2022-11-26T06:03:08.687Z,37.28
2022-11-26T06:05:35.915Z,36.05
2022-11-26T06:08:02.728Z,38.92
2022-11-26T06:10:29.886Z,44.28
2022-11-26T06:12:56.759Z,35.22
2022-11-26T06:15:23.782Z,38.22
2022-11-26T06:17:50.474Z,41.92
2022-11-26T06:20:17.530Z,41.28
2022-11-26T06:22:44.463Z,39.60
2022-11-26T06:25:13.451Z,38.08
2022-11-26T06:27:40.531Z,39.85
2022-11-26T06:30:08.669Z,38.67
2022-11-26T06:32:35.426Z,36.67
2022-11-26T06:35:02.526Z,34.30
2022-11-26T06:37:29.237Z,32.45
2022-11-26T06:39:56.243Z,38.65
2022-11-26T06:42:22.936Z,35.25
2022-11-26T06:44:57.017Z,38.05
2022-11-26T06:47:26.491Z,35.22
2022-11-26T06:49:53.721Z,37.00
2022-11-26T06:52:20.455Z,36.42
2022-11-26T06:54:47.530Z,36.35
2022-11-26T06:57:14.298Z,35.13
2022-11-26T06:59:41.350Z,34.22
2022-11-26T07:02:09.641Z,37.38
2022-11-26T07:04:36.925Z,35.15
2022-11-26T07:07:03.904Z,37.97
2022-11-26T07:09:30.865Z,36.03
2022-11-26T07:11:57.573Z,35.83
2022-11-26T07:14:24.583Z,38.10
2022-11-26T07:16:51.308Z,36.03
2022-11-26T07:19:18.381Z,39.33
2022-11-26T07:21:45.165Z,41.85
2022-11-26T07:24:12.191Z,41.88
2022-11-26T07:26:38.932Z,37.88
2022-11-26T07:29:06.111Z,40.05
2022-11-26T07:31:32.949Z,42.38
2022-11-26T07:33:59.985Z,47.03
2022-11-26T07:36:27.529Z,46.78
2022-11-26T07:38:58.453Z,45.13
2022-11-26T07:41:25.466Z,45.83
2022-11-26T07:43:52.488Z,44.25
2022-11-26T07:46:21.653Z,42.05
2022-11-26T07:48:48.890Z,43.65
2022-11-26T07:51:20.527Z,44.38
2022-11-26T07:53:47.730Z,45.22
2022-11-26T07:56:14.914Z,42.80
2022-11-26T07:58:41.974Z,44.22
2022-11-26T08:01:10.113Z,42.50
2022-11-26T08:03:39.128Z,47.03
2022-11-26T08:06:07.723Z,43.42
2022-11-26T08:08:35.368Z,48.10
2022-11-26T08:11:03.176Z,46.28
2022-11-26T08:13:30.304Z,48.88
2022-11-26T08:15:57.090Z,49.53
2022-11-26T08:18:24.180Z,51.85
2022-11-26T08:20:57.416Z,53.28
2022-11-26T08:23:24.823Z,49.33
2022-11-26T08:26:22.736Z,48.95
2022-11-26T08:28:39.016Z,47.85
2022-11-26T08:31:07.250Z,49.80
2022-11-26T08:33:34.360Z,51.28
2022-11-26T08:36:08.876Z,49.78
2022-11-26T08:38:36.144Z,54.00
2022-11-26T08:41:04.268Z,48.13
2022-11-26T08:44:04.046Z,53.40
2022-11-26T08:46:18.248Z,51.72
2022-11-26T08:48:45.423Z,55.03
2022-11-26T08:51:12.431Z,51.95
2022-11-26T08:53:39.643Z,58.83
2022-11-26T08:56:10.971Z,57.97
2022-11-26T08:58:39.538Z,56.38
2022-11-26T09:01:14.838Z,51.75
2022-11-26T09:03:42.007Z,55.25
2022-11-26T09:06:08.921Z,51.05
2022-11-26T09:08:56.145Z,53.20
2022-11-26T09:11:23.636Z,49.05
2022-11-26T09:13:50.669Z,54.45
2022-11-26T09:16:17.604Z,52.22
2022-11-26T09:18:44.723Z,51.05
2022-11-26T09:21:11.487Z,50.00
2022-11-26T09:23:38.512Z,50.05
2022-11-26T09:26:05.399Z,48.15
2022-11-26T09:28:32.379Z,48.20
2022-11-26T09:30:59.728Z,49.28
2022-11-26T09:33:26.906Z,47.17
2022-11-26T09:35:53.626Z,49.90
2022-11-26T09:38:20.899Z,47.47
2022-11-26T09:40:49.733Z,49.65
2022-11-26T09:43:29.632Z,46.17
2022-11-26T09:45:58.722Z,46.00
2022-11-26T09:48:25.935Z,48.35
2022-11-26T09:50:56.190Z,43.33
2022-11-26T09:53:28.113Z,46.15
2022-11-26T09:55:55.542Z,45.97
2022-11-26T09:58:31.757Z,44.17
2022-11-26T10:00:59.752Z,44.42
2022-11-26T10:03:29.935Z,42.58
2022-11-26T10:06:06.618Z,42.00
2022-11-26T10:08:58.566Z,44.00
2022-11-26T10:11:59.018Z,42.53
2022-11-26T10:14:30.758Z,51.92
2022-11-26T10:17:09.593Z,43.33
2022-11-26T10:19:58.994Z,43.53
2022-11-26T10:22:28.702Z,45.60
2022-11-26T10:24:56.818Z,41.45
2022-11-26T10:27:24.725Z,42.75
2022-11-26T10:29:54.643Z,44.65
2022-11-26T10:32:26.119Z,35.35
2022-11-26T10:34:57.585Z,36.45
2022-11-26T10:37:28.437Z,42.08
2022-11-26T10:40:20.930Z,37.83
2022-11-26T10:43:05.904Z,38.85
2022-11-26T10:45:37.316Z,36.45
2022-11-26T10:48:29.885Z,38.78
2022-11-26T10:51:01.357Z,37.70
2022-11-26T10:53:29.832Z,35.95
2022-11-26T10:56:01.269Z,36.17
2022-11-26T10:58:33.273Z,36.40
2022-11-26T11:01:04.966Z,35.47
2022-11-26T11:06:28.106Z,34.92
2022-11-26T11:08:55.148Z,32.97
2022-11-26T11:11:22.277Z,29.17
2022-11-26T11:13:49.241Z,33.53
2022-11-26T11:16:22.837Z,35.92
2022-11-26T11:18:51.642Z,31.25
2022-11-26T11:21:19.134Z,29.20
2022-11-26T11:24:07.567Z,32.60
2022-11-26T11:26:40.568Z,32.15
2022-11-26T11:29:32.606Z,34.05
2022-11-26T11:32:02.142Z,32.15
2022-11-26T11:34:33.927Z,31.98
2022-11-26T11:37:05.633Z,30.40
2022-11-26T11:39:34.087Z,32.15
2022-11-26T11:42:02.559Z,30.52
2022-11-26T11:44:38.686Z,30.50
2022-11-26T11:47:21.332Z,31.45
2022-11-26T11:50:02.257Z,31.52
2022-11-26T11:52:32.206Z,31.67
2022-11-26T11:55:08.228Z,30.83
2022-11-26T11:57:56.695Z,33.03
2022-11-26T12:00:26.285Z,32.30
2022-11-26T12:03:25.508Z,28.25
2022-11-26T12:06:07.651Z,31.42
2022-11-26T12:08:58.888Z,31.17
2022-11-26T12:11:57.762Z,33.53
2022-11-26T12:14:30.885Z,33.40
2022-11-26T12:17:02.873Z,35.85
2022-11-26T12:19:43.770Z,34.60
2022-11-26T12:22:17.576Z,34.28
2022-11-26T12:24:48.481Z,36.83
2022-11-26T12:27:21.109Z,34.75
2022-11-26T12:29:52.501Z,31.02
2022-11-26T12:32:51.071Z,31.95
2022-11-26T12:35:41.193Z,35.70
2022-11-26T12:38:25.698Z,33.33
2022-11-26T12:40:58.638Z,30.27
2022-11-26T12:43:40.210Z,36.25
2022-11-26T12:46:18.636Z,40.20
2022-11-26T12:49:13.791Z,37.10
2022-11-26T12:51:58.521Z,43.47
2022-11-26T12:54:28.974Z,45.08
2022-11-26T12:56:57.401Z,43.08
2022-11-26T12:59:35.126Z,45.15
2022-11-26T13:02:14.593Z,48.08
2022-11-26T13:04:41.365Z,44.85
2022-11-26T13:07:57.917Z,39.35
2022-11-26T13:10:57.437Z,51.13
2022-11-26T13:13:39.181Z,49.13
2022-11-26T13:16:07.940Z,45.60
2022-11-26T13:18:41.589Z,46.83
2022-11-26T13:21:36.431Z,42.55
2022-11-26T13:24:40.994Z,41.40
2022-11-26T13:27:39.081Z,38.05
2022-11-26T13:30:17.804Z,42.10
2022-11-26T13:33:07.316Z,40.13
2022-11-26T13:35:47.254Z,45.83
2022-11-26T13:38:24.177Z,41.22
2022-11-26T13:41:00.268Z,44.53
2022-11-26T13:44:07.921Z,49.95
2022-11-26T13:46:38.136Z,44.00
2022-11-26T13:49:15.582Z,47.17
2022-11-26T13:51:47.756Z,40.92
2022-11-26T13:54:24.400Z,42.28
2022-11-26T13:57:01.038Z,42.33
2022-11-26T13:59:28.883Z,38.00
2022-11-26T14:01:56.235Z,37.65
2022-11-26T14:04:23.107Z,39.38
2022-11-26T14:07:05.339Z,38.67
2022-11-26T14:09:44.516Z,35.47
2022-11-26T14:12:17.690Z,38.15
2022-11-26T14:14:46.208Z,34.03
2022-11-26T14:17:20.254Z,38.92
2022-11-26T14:19:52.039Z,34.20
2022-11-26T14:22:22.221Z,34.75
2022-11-26T14:24:52.016Z,32.58
2022-11-26T14:27:32.948Z,30.00
2022-11-26T14:30:07.666Z,31.58
2022-11-26T14:32:39.231Z,30.63
2022-11-26T14:35:21.328Z,29.27
2022-11-26T14:37:55.858Z,31.38
2022-11-26T14:40:28.105Z,33.15
2022-11-26T14:43:19.409Z,31.33
2022-11-26T14:45:47.675Z,29.75
2022-11-26T14:48:28.283Z,29.98
2022-11-26T14:50:56.532Z,28.20
2022-11-26T14:53:25.166Z,28.63
2022-11-26T14:55:52.168Z,28.08
2022-11-26T14:58:21.025Z,25.90
2022-11-26T15:01:15.221Z,26.70
2022-11-26T15:03:42.417Z,25.45
2022-11-26T15:06:26.557Z,25.45
2022-11-26T15:09:15.053Z,24.13
2022-11-26T15:12:09.555Z,26.48
2022-11-26T15:14:49.920Z,27.30
2022-11-26T15:17:17.875Z,27.67
2022-11-26T15:19:44.975Z,30.10
2022-11-26T15:22:34.375Z,27.48
2022-11-26T15:25:01.439Z,26.42
2022-11-26T15:27:41.251Z,27.90
2022-11-26T15:30:22.919Z,30.45
2022-11-26T15:32:58.893Z,29.42
2022-11-26T15:35:25.968Z,33.83
2022-11-26T15:37:52.783Z,27.25
2022-11-26T15:40:25.131Z,30.10
2022-11-26T15:42:55.076Z,30.60
2022-11-26T15:45:22.850Z,30.67
2022-11-26T15:47:54.235Z,27.30
2022-11-26T15:50:30.597Z,25.08
2022-11-26T15:53:22.198Z,25.73
2022-11-26T15:55:49.356Z,26.13
2022-11-26T15:58:19.830Z,21.80
2022-11-26T16:00:53.499Z,24.48
2022-11-26T16:03:35.766Z,23.90
2022-11-26T16:06:05.086Z,22.10
2022-11-26T16:08:32.027Z,22.05
2022-11-26T16:11:05.729Z,25.45
2022-11-26T16:13:33.086Z,21.38
2022-11-26T16:16:19.546Z,20.88
2022-11-26T16:18:46.341Z,21.55
2022-11-26T16:21:18.846Z,21.83
2022-11-26T16:23:52.314Z,21.38
2022-11-26T16:26:19.505Z,19.90
2022-11-26T16:28:46.972Z,23.35
2022-11-26T16:31:14.842Z,20.98
2022-11-26T16:33:41.818Z,22.10
2022-11-26T16:36:25.454Z,23.35
2022-11-26T16:38:52.558Z,24.17
2022-11-26T16:41:20.717Z,18.88
2022-11-26T16:43:48.138Z,22.48
2022-11-26T16:46:20.987Z,19.80
2022-11-26T16:48:48.005Z,21.30
2022-11-26T16:51:15.128Z,25.08
2022-11-26T16:53:41.863Z,24.52
2022-11-26T16:56:38.415Z,21.77
2022-11-26T17:01:33.215Z,28.02
2022-11-26T17:04:00.013Z,32.53
2022-11-26T17:06:31.324Z,35.22
2022-11-26T17:08:58.164Z,36.60
2022-11-26T17:11:25.368Z,36.05
2022-11-26T17:13:52.245Z,43.83
2022-11-26T17:16:21.032Z,43.50
2022-11-26T17:18:48.061Z,44.40
2022-11-26T17:21:15.205Z,45.47
2022-11-26T17:23:42.013Z,43.42
2022-11-26T17:26:27.291Z,44.67
2022-11-26T17:28:54.107Z,42.25
2022-11-26T17:31:21.290Z,38.55
2022-11-26T17:33:48.176Z,37.42
2022-11-26T17:36:15.255Z,39.72
2022-11-26T17:38:42.175Z,40.55
2022-11-26T17:41:11.165Z,34.50
2022-11-26T17:43:38.411Z,34.70
2022-11-26T17:46:05.834Z,36.20
2022-11-26T17:48:32.642Z,36.83
2022-11-26T17:50:59.668Z,29.65
2022-11-26T17:53:26.471Z,32.50
2022-11-26T17:55:53.551Z,32.55
2022-11-26T17:58:20.386Z,28.98
2022-11-26T18:00:47.404Z,31.38
2022-11-26T18:03:14.159Z,28.80
2022-11-26T18:05:42.436Z,28.75
2022-11-26T18:08:09.336Z,29.25
2022-11-26T18:10:39.325Z,27.25
2022-11-26T18:13:06.126Z,26.17
2022-11-26T18:15:33.209Z,26.08
2022-11-26T18:18:00.701Z,26.58
2022-11-26T18:20:28.150Z,26.33
2022-11-26T18:22:57.112Z,24.83
2022-11-26T18:25:24.401Z,24.92
2022-11-26T18:27:51.705Z,27.67
2022-11-26T18:30:19.167Z,27.25
2022-11-26T18:32:46.218Z,24.23
2022-11-26T18:35:13.439Z,25.85
2022-11-26T18:37:40.333Z,26.52
2022-11-26T18:40:08.704Z,28.75
2022-11-26T18:42:37.766Z,29.55
2022-11-26T18:45:10.140Z,27.88
2022-11-26T18:47:37.597Z,27.33
2022-11-26T18:50:05.528Z,27.08
2022-11-26T18:52:32.294Z,26.52
2022-11-26T18:55:00.094Z,25.48
2022-11-26T18:57:27.457Z,24.92
2022-11-26T18:59:54.469Z,29.00
2022-11-26T19:02:21.245Z,23.48
2022-11-26T19:04:48.393Z,25.92
2022-11-26T19:07:15.641Z,24.67
2022-11-26T19:09:43.263Z,26.90
2022-11-26T19:12:12.373Z,26.90
2022-11-26T19:14:39.468Z,28.80
2022-11-26T19:17:06.299Z,27.02
2022-11-26T19:19:33.468Z,27.05
2022-11-26T19:22:01.596Z,26.95
2022-11-26T19:24:29.913Z,29.10
2022-11-26T19:26:57.134Z,27.35
2022-11-26T19:29:24.209Z,30.23
2022-11-26T19:31:51.000Z,28.75
2022-11-26T19:34:18.312Z,29.52
2022-11-26T19:36:48.543Z,28.80
2022-11-26T19:39:16.129Z,28.25
2022-11-26T19:41:42.923Z,30.67
2022-11-26T19:44:09.995Z,29.20
2022-11-26T19:46:39.376Z,32.45
2022-11-26T19:49:07.307Z,29.98
2022-11-26T19:51:34.139Z,31.42
2022-11-26T19:54:01.183Z,31.90
2022-11-26T19:56:29.444Z,36.33
2022-11-26T19:59:00.609Z,32.88
2022-11-26T20:01:30.573Z,36.83
2022-11-26T20:04:02.911Z,34.63
2022-11-26T20:06:30.558Z,35.20
2022-11-26T20:09:00.542Z,33.58
2022-11-26T20:11:28.037Z,38.33
2022-11-26T20:13:55.417Z,36.78
2022-11-26T20:16:24.384Z,33.92
2022-11-26T20:18:51.568Z,38.80
2022-11-26T20:21:20.354Z,37.10
2022-11-26T20:23:48.470Z,36.38
2022-11-26T20:26:17.482Z,34.47
2022-11-26T20:28:44.810Z,37.65
2022-11-26T20:31:12.068Z,41.55
2022-11-26T20:33:39.170Z,36.92
2022-11-26T20:36:07.847Z,36.92
2022-11-26T20:38:35.114Z,36.75
2022-11-26T20:41:06.710Z,39.10
2022-11-26T20:43:33.834Z,39.45
2022-11-26T20:46:04.808Z,36.90
2022-11-26T20:48:32.660Z,37.65
2022-11-26T20:51:03.604Z,34.97
2022-11-26T20:53:30.986Z,39.80
2022-11-26T20:55:57.823Z,39.30
2022-11-26T20:58:25.608Z,38.97
2022-11-26T21:00:54.163Z,40.28
2022-11-26T21:03:22.173Z,42.22
2022-11-26T21:05:49.059Z,43.92
2022-11-26T21:08:16.777Z,42.85
2022-11-26T21:10:43.614Z,43.30
2022-11-26T21:13:12.378Z,40.30
2022-11-26T21:15:40.250Z,44.40
2022-11-26T21:18:07.383Z,44.53
2022-11-26T21:20:36.295Z,44.85
2022-11-26T21:23:03.459Z,45.58
2022-11-26T21:25:30.221Z,46.13
2022-11-26T21:27:57.331Z,42.40
2022-11-26T21:30:24.273Z,44.65
2022-11-26T21:32:51.493Z,43.75
2022-11-26T21:35:18.285Z,42.10
2022-11-26T21:37:45.581Z,43.75
2022-11-26T21:40:12.697Z,42.25
2022-11-26T21:42:39.817Z,42.65
2022-11-26T21:45:07.970Z,43.42
2022-11-26T21:47:35.102Z,45.05
2022-11-26T21:50:02.516Z,40.83
2022-11-26T21:52:29.573Z,41.08
2022-11-26T21:55:00.798Z,44.17
2022-11-26T21:57:31.818Z,45.00
2022-11-26T21:59:58.617Z,42.92
2022-11-26T22:02:25.737Z,42.03
2022-11-26T22:04:52.769Z,40.10
2022-11-26T22:07:21.490Z,43.55
2022-11-26T22:09:48.302Z,41.85
2022-11-26T22:12:15.330Z,44.63
2022-11-26T22:14:42.327Z,43.05
2022-11-26T22:17:09.340Z,39.55
2022-11-26T22:19:36.175Z,42.83
2022-11-26T22:22:03.263Z,46.65
2022-11-26T22:24:29.959Z,40.20
2022-11-26T22:26:57.002Z,43.65
2022-11-26T22:29:23.965Z,47.08
2022-11-26T22:31:51.121Z,39.83
2022-11-26T22:34:18.809Z,40.53
2022-11-26T22:36:45.988Z,43.05
2022-11-26T22:39:14.377Z,41.17
2022-11-26T22:41:41.945Z,43.92
2022-11-26T22:44:08.941Z,38.42
2022-11-26T22:46:38.152Z,41.83
2022-11-26T22:49:05.342Z,42.80
2022-11-26T22:51:33.301Z,40.88
2022-11-26T22:54:02.822Z,40.63
2022-11-26T22:56:30.073Z,44.40
2022-11-26T22:58:56.946Z,38.42
2022-11-26T23:01:29.620Z,39.45
2022-11-26T23:03:58.362Z,38.45
2022-11-26T23:06:26.721Z,38.42
2022-11-26T23:08:54.551Z,39.33
2022-11-26T23:11:25.409Z,34.70
2022-11-26T23:13:52.401Z,42.97
2022-11-26T23:16:20.815Z,40.30
2022-11-26T23:18:48.034Z,38.30
2022-11-26T23:21:17.269Z,41.13
2022-11-26T23:23:44.360Z,39.00
2022-11-26T23:26:13.535Z,40.88
2022-11-26T23:28:40.412Z,44.30
2022-11-26T23:31:13.205Z,39.05
2022-11-26T23:33:39.954Z,46.55
2022-11-26T23:36:07.364Z,43.00
2022-11-26T23:38:34.564Z,43.00
2022-11-26T23:41:02.604Z,39.90
2022-11-26T23:43:30.062Z,40.75
2022-11-26T23:46:07.981Z,41.78
2022-11-26T23:48:34.738Z,39.08
2022-11-26T23:51:06.117Z,41.58
2022-11-26T23:53:35.271Z,38.38
2022-11-26T23:56:06.386Z,40.25
2022-11-26T23:58:33.210Z,38.58
